sensor_id;sensor_type;location;lat;lon;timestamp;P1;durP1;ratioP1;P2;durP2;ratioP2
14554;SDS011;7364;50.870;4.722;2022-08-19T00:01:42;18.83;;;16.93;;
14554;SDS011;7364;50.870;4.722;2022-08-19T00:04:12;19.30;;;17.40;;
14554;SDS011;7364;50.870;4.722;2022-08-19T00:06:42;19.33;;;17.57;;
14554;SDS011;7364;50.870;4.722;2022-08-19T00:09:12;18.43;;;16.63;;
14554;SDS011;7364;50.870;4.722;2022-08-19T00:11:41;19.10;;;17.27;;
14554;SDS011;7364;50.870;4.722;2022-08-19T00:14:10;19.27;;;17.47;;
14554;SDS011;7364;50.870;4.722;2022-08-19T00:16:44;18.73;;;17.00;;
14554;SDS011;7364;50.870;4.722;2022-08-19T00:19:13;18.60;;;17.00;;
14554;SDS011;7364;50.870;4.722;2022-08-19T00:21:41;20.10;;;17.93;;
14554;SDS011;7364;50.870;4.722;2022-08-19T00:24:09;21.07;;;19.07;;
14554;SDS011;7364;50.870;4.722;2022-08-19T00:26:37;21.00;;;18.77;;
14554;SDS011;7364;50.870;4.722;2022-08-19T00:29:06;21.53;;;19.50;;
14554;SDS011;7364;50.870;4.722;2022-08-19T00:31:36;21.30;;;19.33;;
14554;SDS011;7364;50.870;4.722;2022-08-19T00:34:05;22.97;;;20.97;;
14554;SDS011;7364;50.870;4.722;2022-08-19T00:36:32;22.37;;;20.13;;
14554;SDS011;7364;50.870;4.722;2022-08-19T00:39:00;24.07;;;21.57;;
14554;SDS011;7364;50.870;4.722;2022-08-19T00:41:27;25.17;;;22.57;;
14554;SDS011;7364;50.870;4.722;2022-08-19T00:43:59;25.13;;;22.73;;
14554;SDS011;7364;50.870;4.722;2022-08-19T00:46:29;23.83;;;21.63;;
14554;SDS011;7364;50.870;4.722;2022-08-19T00:48:57;23.93;;;21.70;;
14554;SDS011;7364;50.870;4.722;2022-08-19T00:51:29;25.67;;;22.87;;
14554;SDS011;7364;50.870;4.722;2022-08-19T00:53:58;26.10;;;23.70;;
14554;SDS011;7364;50.870;4.722;2022-08-19T00:56:27;27.77;;;25.00;;
14554;SDS011;7364;50.870;4.722;2022-08-19T00:58:56;28.20;;;25.33;;
14554;SDS011;7364;50.870;4.722;2022-08-19T01:01:25;31.07;;;27.33;;
14554;SDS011;7364;50.870;4.722;2022-08-19T01:03:52;30.10;;;27.30;;
14554;SDS011;7364;50.870;4.722;2022-08-19T01:06:19;34.13;;;30.90;;
14554;SDS011;7364;50.870;4.722;2022-08-19T01:08:48;32.33;;;29.33;;
14554;SDS011;7364;50.870;4.722;2022-08-19T01:11:15;33.87;;;30.53;;
14554;SDS011;7364;50.870;4.722;2022-08-19T01:13:43;35.77;;;32.23;;
14554;SDS011;7364;50.870;4.722;2022-08-19T01:16:11;36.83;;;33.23;;
14554;SDS011;7364;50.870;4.722;2022-08-19T01:18:41;37.50;;;33.60;;
14554;SDS011;7364;50.870;4.722;2022-08-19T01:21:10;40.17;;;35.80;;
14554;SDS011;7364;50.870;4.722;2022-08-19T01:23:45;43.83;;;38.70;;
14554;SDS011;7364;50.870;4.722;2022-08-19T01:26:14;45.33;;;40.57;;
14554;SDS011;7364;50.870;4.722;2022-08-19T01:28:48;45.47;;;40.33;;
14554;SDS011;7364;50.870;4.722;2022-08-19T01:31:19;45.03;;;40.43;;
14554;SDS011;7364;50.870;4.722;2022-08-19T01:33:48;45.60;;;41.00;;
14554;SDS011;7364;50.870;4.722;2022-08-19T01:36:21;46.53;;;41.77;;
14554;SDS011;7364;50.870;4.722;2022-08-19T01:38:53;49.13;;;43.87;;
14554;SDS011;7364;50.870;4.722;2022-08-19T01:41:21;47.40;;;42.87;;
14554;SDS011;7364;50.870;4.722;2022-08-19T01:43:48;49.53;;;44.33;;
14554;SDS011;7364;50.870;4.722;2022-08-19T01:46:16;50.00;;;45.17;;
14554;SDS011;7364;50.870;4.722;2022-08-19T01:48:43;48.93;;;43.83;;
14554;SDS011;7364;50.870;4.722;2022-08-19T01:51:11;51.20;;;45.83;;
14554;SDS011;7364;50.870;4.722;2022-08-19T01:53:39;50.57;;;45.20;;
14554;SDS011;7364;50.870;4.722;2022-08-19T01:56:09;55.27;;;49.33;;
14554;SDS011;7364;50.870;4.722;2022-08-19T01:58:36;57.90;;;52.07;;
14554;SDS011;7364;50.870;4.722;2022-08-19T02:01:08;55.93;;;49.57;;
14554;SDS011;7364;50.870;4.722;2022-08-19T02:03:35;53.23;;;47.67;;
14554;SDS011;7364;50.870;4.722;2022-08-19T02:06:03;55.70;;;50.03;;
14554;SDS011;7364;50.870;4.722;2022-08-19T02:08:33;55.10;;;49.50;;
14554;SDS011;7364;50.870;4.722;2022-08-19T02:11:04;54.43;;;48.67;;
14554;SDS011;7364;50.870;4.722;2022-08-19T02:13:33;55.87;;;50.27;;
14554;SDS011;7364;50.870;4.722;2022-08-19T02:16:00;57.50;;;50.97;;
14554;SDS011;7364;50.870;4.722;2022-08-19T02:18:28;53.97;;;48.20;;
14554;SDS011;7364;50.870;4.722;2022-08-19T02:20:55;54.27;;;48.70;;
14554;SDS011;7364;50.870;4.722;2022-08-19T02:23:22;51.63;;;46.40;;
14554;SDS011;7364;50.870;4.722;2022-08-19T02:25:49;51.77;;;46.47;;
14554;SDS011;7364;50.870;4.722;2022-08-19T02:28:18;53.37;;;47.47;;
14554;SDS011;7364;50.870;4.722;2022-08-19T02:30:47;53.07;;;47.80;;
14554;SDS011;7364;50.870;4.722;2022-08-19T02:33:14;53.90;;;48.07;;
14554;SDS011;7364;50.870;4.722;2022-08-19T02:35:42;52.80;;;47.70;;
14554;SDS011;7364;50.870;4.722;2022-08-19T02:38:10;51.17;;;45.90;;
14554;SDS011;7364;50.870;4.722;2022-08-19T02:40:54;48.83;;;43.83;;
14554;SDS011;7364;50.870;4.722;2022-08-19T02:43:22;45.47;;;40.93;;
14554;SDS011;7364;50.870;4.722;2022-08-19T02:45:52;43.77;;;39.20;;
14554;SDS011;7364;50.870;4.722;2022-08-19T02:48:20;46.03;;;41.00;;
14554;SDS011;7364;50.870;4.722;2022-08-19T02:50:50;44.90;;;40.33;;
14554;SDS011;7364;50.870;4.722;2022-08-19T02:53:20;51.70;;;46.37;;
14554;SDS011;7364;50.870;4.722;2022-08-19T02:55:49;49.10;;;43.93;;
14554;SDS011;7364;50.870;4.722;2022-08-19T02:58:18;42.37;;;38.07;;
14554;SDS011;7364;50.870;4.722;2022-08-19T03:00:47;44.13;;;39.60;;
14554;SDS011;7364;50.870;4.722;2022-08-19T03:03:16;47.53;;;42.47;;
14554;SDS011;7364;50.870;4.722;2022-08-19T03:05:44;54.00;;;47.80;;
14554;SDS011;7364;50.870;4.722;2022-08-19T03:08:12;51.37;;;46.07;;
14554;SDS011;7364;50.870;4.722;2022-08-19T03:10:41;51.70;;;46.33;;
14554;SDS011;7364;50.870;4.722;2022-08-19T03:13:12;54.33;;;48.40;;
14554;SDS011;7364;50.870;4.722;2022-08-19T03:15:41;54.83;;;48.93;;
14554;SDS011;7364;50.870;4.722;2022-08-19T03:18:09;54.73;;;49.03;;
14554;SDS011;7364;50.870;4.722;2022-08-19T03:20:42;55.07;;;49.50;;
14554;SDS011;7364;50.870;4.722;2022-08-19T03:23:13;58.73;;;52.50;;
14554;SDS011;7364;50.870;4.722;2022-08-19T03:25:45;58.30;;;52.10;;
14554;SDS011;7364;50.870;4.722;2022-08-19T03:28:14;59.97;;;53.53;;
14554;SDS011;7364;50.870;4.722;2022-08-19T03:30:42;57.47;;;51.37;;
14554;SDS011;7364;50.870;4.722;2022-08-19T03:33:22;58.43;;;52.23;;
14554;SDS011;7364;50.870;4.722;2022-08-19T03:36:08;57.63;;;49.73;;
14554;SDS011;7364;50.870;4.722;2022-08-19T03:38:38;57.63;;;51.53;;
14554;SDS011;7364;50.870;4.722;2022-08-19T03:41:07;55.93;;;49.97;;
14554;SDS011;7364;50.870;4.722;2022-08-19T03:43:38;58.67;;;52.33;;
14554;SDS011;7364;50.870;4.722;2022-08-19T03:46:07;54.53;;;48.83;;
14554;SDS011;7364;50.870;4.722;2022-08-19T03:48:40;56.47;;;50.57;;
14554;SDS011;7364;50.870;4.722;2022-08-19T03:51:16;53.30;;;47.87;;
14554;SDS011;7364;50.870;4.722;2022-08-19T03:53:45;52.73;;;47.13;;
14554;SDS011;7364;50.870;4.722;2022-08-19T03:56:13;56.53;;;48.33;;
14554;SDS011;7364;50.870;4.722;2022-08-19T03:58:41;48.60;;;43.63;;
14554;SDS011;7364;50.870;4.722;2022-08-19T04:01:11;50.70;;;45.50;;
14554;SDS011;7364;50.870;4.722;2022-08-19T04:03:44;49.93;;;43.60;;
14554;SDS011;7364;50.870;4.722;2022-08-19T04:06:12;46.33;;;41.37;;
14554;SDS011;7364;50.870;4.722;2022-08-19T04:08:41;45.73;;;41.20;;
14554;SDS011;7364;50.870;4.722;2022-08-19T04:11:11;45.87;;;41.20;;
14554;SDS011;7364;50.870;4.722;2022-08-19T04:13:39;46.20;;;41.53;;
14554;SDS011;7364;50.870;4.722;2022-08-19T04:16:08;42.47;;;38.27;;
14554;SDS011;7364;50.870;4.722;2022-08-19T04:18:37;42.97;;;38.63;;
14554;SDS011;7364;50.870;4.722;2022-08-19T04:21:06;42.73;;;38.10;;
14554;SDS011;7364;50.870;4.722;2022-08-19T04:23:34;44.67;;;40.23;;
14554;SDS011;7364;50.870;4.722;2022-08-19T04:26:03;52.37;;;39.93;;
14554;SDS011;7364;50.870;4.722;2022-08-19T04:28:30;42.83;;;38.27;;
14554;SDS011;7364;50.870;4.722;2022-08-19T04:30:58;44.67;;;39.33;;
14554;SDS011;7364;50.870;4.722;2022-08-19T04:33:25;42.33;;;37.73;;
14554;SDS011;7364;50.870;4.722;2022-08-19T04:35:53;41.47;;;37.37;;
14554;SDS011;7364;50.870;4.722;2022-08-19T04:38:23;42.90;;;38.63;;
14554;SDS011;7364;50.870;4.722;2022-08-19T04:40:51;45.27;;;38.47;;
14554;SDS011;7364;50.870;4.722;2022-08-19T04:43:49;41.73;;;37.20;;
14554;SDS011;7364;50.870;4.722;2022-08-19T04:46:16;41.50;;;37.23;;
14554;SDS011;7364;50.870;4.722;2022-08-19T04:48:45;40.17;;;36.30;;
14554;SDS011;7364;50.870;4.722;2022-08-19T04:51:12;39.07;;;35.20;;
14554;SDS011;7364;50.870;4.722;2022-08-19T04:53:41;38.70;;;34.77;;
14554;SDS011;7364;50.870;4.722;2022-08-19T04:56:09;38.73;;;34.23;;
14554;SDS011;7364;50.870;4.722;2022-08-19T04:58:40;39.83;;;33.87;;
14554;SDS011;7364;50.870;4.722;2022-08-19T05:01:11;39.13;;;34.60;;
14554;SDS011;7364;50.870;4.722;2022-08-19T05:03:38;37.47;;;33.53;;
14554;SDS011;7364;50.870;4.722;2022-08-19T05:06:06;36.07;;;32.47;;
14554;SDS011;7364;50.870;4.722;2022-08-19T05:08:36;38.80;;;34.70;;
14554;SDS011;7364;50.870;4.722;2022-08-19T05:11:08;37.70;;;33.73;;
14554;SDS011;7364;50.870;4.722;2022-08-19T05:13:38;37.97;;;33.90;;
14554;SDS011;7364;50.870;4.722;2022-08-19T05:16:06;37.23;;;33.23;;
14554;SDS011;7364;50.870;4.722;2022-08-19T05:18:35;36.53;;;32.10;;
14554;SDS011;7364;50.870;4.722;2022-08-19T05:21:19;34.27;;;30.73;;
14554;SDS011;7364;50.870;4.722;2022-08-19T05:24:04;35.57;;;31.70;;
14554;SDS011;7364;50.870;4.722;2022-08-19T05:26:34;34.77;;;30.50;;
14554;SDS011;7364;50.870;4.722;2022-08-19T05:29:01;36.30;;;30.77;;
14554;SDS011;7364;50.870;4.722;2022-08-19T05:31:29;36.47;;;32.20;;
14554;SDS011;7364;50.870;4.722;2022-08-19T05:33:59;35.67;;;31.87;;
14554;SDS011;7364;50.870;4.722;2022-08-19T05:36:26;37.70;;;31.97;;
14554;SDS011;7364;50.870;4.722;2022-08-19T05:38:54;37.60;;;33.53;;
14554;SDS011;7364;50.870;4.722;2022-08-19T05:41:22;39.13;;;33.57;;
14554;SDS011;7364;50.870;4.722;2022-08-19T05:43:55;35.83;;;32.03;;
14554;SDS011;7364;50.870;4.722;2022-08-19T05:46:22;41.20;;;34.23;;
14554;SDS011;7364;50.870;4.722;2022-08-19T05:48:49;39.07;;;34.80;;
14554;SDS011;7364;50.870;4.722;2022-08-19T05:51:18;39.37;;;35.27;;
14554;SDS011;7364;50.870;4.722;2022-08-19T05:53:45;41.57;;;35.17;;
14554;SDS011;7364;50.870;4.722;2022-08-19T05:56:13;38.30;;;34.23;;
14554;SDS011;7364;50.870;4.722;2022-08-19T05:58:43;40.50;;;34.10;;
14554;SDS011;7364;50.870;4.722;2022-08-19T06:01:11;39.33;;;35.03;;
14554;SDS011;7364;50.870;4.722;2022-08-19T06:03:41;37.93;;;32.97;;
14554;SDS011;7364;50.870;4.722;2022-08-19T06:06:09;37.00;;;32.93;;
14554;SDS011;7364;50.870;4.722;2022-08-19T06:08:39;36.37;;;32.30;;
14554;SDS011;7364;50.870;4.722;2022-08-19T06:11:15;33.17;;;29.77;;
14554;SDS011;7364;50.870;4.722;2022-08-19T06:13:45;32.80;;;29.50;;
14554;SDS011;7364;50.870;4.722;2022-08-19T06:16:16;34.80;;;30.33;;
14554;SDS011;7364;50.870;4.722;2022-08-19T06:18:48;35.90;;;31.13;;
14554;SDS011;7364;50.870;4.722;2022-08-19T06:21:18;35.20;;;30.93;;
14554;SDS011;7364;50.870;4.722;2022-08-19T06:23:49;38.03;;;33.10;;
14554;SDS011;7364;50.870;4.722;2022-08-19T06:26:17;37.93;;;33.93;;
14554;SDS011;7364;50.870;4.722;2022-08-19T06:28:45;40.00;;;33.80;;
14554;SDS011;7364;50.870;4.722;2022-08-19T06:31:13;39.67;;;33.13;;
14554;SDS011;7364;50.870;4.722;2022-08-19T06:33:41;37.60;;;33.60;;
14554;SDS011;7364;50.870;4.722;2022-08-19T06:36:16;34.00;;;30.53;;
14554;SDS011;7364;50.870;4.722;2022-08-19T06:38:45;35.07;;;31.27;;
14554;SDS011;7364;50.870;4.722;2022-08-19T06:41:14;35.17;;;30.03;;
14554;SDS011;7364;50.870;4.722;2022-08-19T06:43:41;39.43;;;30.70;;
14554;SDS011;7364;50.870;4.722;2022-08-19T06:46:09;29.93;;;25.67;;
14554;SDS011;7364;50.870;4.722;2022-08-19T06:48:38;31.43;;;28.23;;
14554;SDS011;7364;50.870;4.722;2022-08-19T06:51:05;31.60;;;28.33;;
14554;SDS011;7364;50.870;4.722;2022-08-19T06:53:33;29.63;;;26.47;;
14554;SDS011;7364;50.870;4.722;2022-08-19T06:56:00;26.03;;;23.17;;
14554;SDS011;7364;50.870;4.722;2022-08-19T06:58:30;28.17;;;22.73;;
14554;SDS011;7364;50.870;4.722;2022-08-19T07:00:59;27.93;;;22.90;;
14554;SDS011;7364;50.870;4.722;2022-08-19T07:03:28;30.33;;;21.97;;
14554;SDS011;7364;50.870;4.722;2022-08-19T07:05:58;24.77;;;19.57;;
14554;SDS011;7364;50.870;4.722;2022-08-19T07:08:29;24.10;;;19.57;;
14554;SDS011;7364;50.870;4.722;2022-08-19T07:10:56;21.23;;;18.60;;
14554;SDS011;7364;50.870;4.722;2022-08-19T07:13:24;22.97;;;18.63;;
14554;SDS011;7364;50.870;4.722;2022-08-19T07:15:52;20.07;;;17.97;;
14554;SDS011;7364;50.870;4.722;2022-08-19T07:18:19;20.83;;;17.17;;
14554;SDS011;7364;50.870;4.722;2022-08-19T07:20:48;20.70;;;16.53;;
14554;SDS011;7364;50.870;4.722;2022-08-19T07:23:15;20.93;;;17.40;;
14554;SDS011;7364;50.870;4.722;2022-08-19T07:25:44;19.50;;;15.30;;
14554;SDS011;7364;50.870;4.722;2022-08-19T07:28:12;16.27;;;14.60;;
14554;SDS011;7364;50.870;4.722;2022-08-19T07:30:39;17.83;;;14.50;;
14554;SDS011;7364;50.870;4.722;2022-08-19T07:33:08;16.57;;;13.33;;
14554;SDS011;7364;50.870;4.722;2022-08-19T07:35:35;19.17;;;13.20;;
14554;SDS011;7364;50.870;4.722;2022-08-19T07:38:02;16.20;;;12.27;;
14554;SDS011;7364;50.870;4.722;2022-08-19T07:40:30;13.97;;;12.57;;
14554;SDS011;7364;50.870;4.722;2022-08-19T07:42:57;20.50;;;12.50;;
14554;SDS011;7364;50.870;4.722;2022-08-19T07:45:24;13.50;;;10.70;;
14554;SDS011;7364;50.870;4.722;2022-08-19T07:47:53;15.33;;;11.47;;
14554;SDS011;7364;50.870;4.722;2022-08-19T07:50:23;13.40;;;10.57;;
14554;SDS011;7364;50.870;4.722;2022-08-19T07:52:51;11.87;;;10.23;;
14554;SDS011;7364;50.870;4.722;2022-08-19T07:55:19;12.20;;;8.87;;
14554;SDS011;7364;50.870;4.722;2022-08-19T07:57:48;10.83;;;7.33;;
14554;SDS011;7364;50.870;4.722;2022-08-19T08:00:17;9.20;;;8.03;;
14554;SDS011;7364;50.870;4.722;2022-08-19T08:02:44;9.57;;;7.80;;
14554;SDS011;7364;50.870;4.722;2022-08-19T08:05:12;11.00;;;7.47;;
14554;SDS011;7364;50.870;4.722;2022-08-19T08:07:58;8.40;;;7.00;;
14554;SDS011;7364;50.870;4.722;2022-08-19T08:10:43;13.77;;;7.57;;
14554;SDS011;7364;50.870;4.722;2022-08-19T08:13:10;9.37;;;5.97;;
14554;SDS011;7364;50.870;4.722;2022-08-19T08:15:38;6.80;;;6.07;;
14554;SDS011;7364;50.870;4.722;2022-08-19T08:18:05;7.87;;;5.53;;
14554;SDS011;7364;50.870;4.722;2022-08-19T08:20:33;8.33;;;5.80;;
14554;SDS011;7364;50.870;4.722;2022-08-19T08:23:03;10.10;;;5.93;;
14554;SDS011;7364;50.870;4.722;2022-08-19T08:25:47;9.87;;;5.57;;
14554;SDS011;7364;50.870;4.722;2022-08-19T08:28:15;7.07;;;6.20;;
14554;SDS011;7364;50.870;4.722;2022-08-19T08:30:42;8.23;;;6.23;;
14554;SDS011;7364;50.870;4.722;2022-08-19T08:33:12;7.17;;;6.47;;
14554;SDS011;7364;50.870;4.722;2022-08-19T08:35:41;9.97;;;6.50;;
14554;SDS011;7364;50.870;4.722;2022-08-19T08:38:12;11.60;;;6.83;;
14554;SDS011;7364;50.870;4.722;2022-08-19T08:40:43;9.73;;;6.37;;
14554;SDS011;7364;50.870;4.722;2022-08-19T08:43:18;12.00;;;7.13;;
14554;SDS011;7364;50.870;4.722;2022-08-19T08:45:55;9.97;;;6.80;;
14554;SDS011;7364;50.870;4.722;2022-08-19T08:48:31;12.00;;;7.27;;
14554;SDS011;7364;50.870;4.722;2022-08-19T08:51:07;13.13;;;7.80;;
14554;SDS011;7364;50.870;4.722;2022-08-19T08:53:38;10.80;;;7.23;;
14554;SDS011;7364;50.870;4.722;2022-08-19T08:56:09;10.77;;;6.80;;
14554;SDS011;7364;50.870;4.722;2022-08-19T08:58:41;10.03;;;6.60;;
14554;SDS011;7364;50.870;4.722;2022-08-19T09:01:17;9.07;;;6.73;;
14554;SDS011;7364;50.870;4.722;2022-08-19T09:03:45;8.97;;;6.97;;
14554;SDS011;7364;50.870;4.722;2022-08-19T09:06:14;8.57;;;6.37;;
14554;SDS011;7364;50.870;4.722;2022-08-19T09:08:53;7.80;;;5.80;;
14554;SDS011;7364;50.870;4.722;2022-08-19T09:11:33;12.33;;;6.53;;
14554;SDS011;7364;50.870;4.722;2022-08-19T09:14:12;8.87;;;5.83;;
14554;SDS011;7364;50.870;4.722;2022-08-19T09:16:51;9.40;;;5.87;;
14554;SDS011;7364;50.870;4.722;2022-08-19T09:19:18;6.80;;;5.80;;
14554;SDS011;7364;50.870;4.722;2022-08-19T09:21:45;7.10;;;5.70;;
14554;SDS011;7364;50.870;4.722;2022-08-19T09:24:14;7.70;;;5.50;;
14554;SDS011;7364;50.870;4.722;2022-08-19T09:26:42;6.93;;;5.60;;
14554;SDS011;7364;50.870;4.722;2022-08-19T09:29:11;7.27;;;5.43;;
14554;SDS011;7364;50.870;4.722;2022-08-19T09:31:38;7.23;;;5.20;;
14554;SDS011;7364;50.870;4.722;2022-08-19T09:34:05;6.80;;;5.20;;
14554;SDS011;7364;50.870;4.722;2022-08-19T09:36:33;8.80;;;5.77;;
14554;SDS011;7364;50.870;4.722;2022-08-19T09:39:02;7.27;;;5.17;;
14554;SDS011;7364;50.870;4.722;2022-08-19T09:41:31;8.23;;;5.73;;
14554;SDS011;7364;50.870;4.722;2022-08-19T09:43:59;8.00;;;5.77;;
14554;SDS011;7364;50.870;4.722;2022-08-19T09:46:28;8.47;;;5.20;;
14554;SDS011;7364;50.870;4.722;2022-08-19T09:48:57;11.97;;;5.03;;
14554;SDS011;7364;50.870;4.722;2022-08-19T09:51:26;5.63;;;3.87;;
14554;SDS011;7364;50.870;4.722;2022-08-19T09:53:54;7.07;;;4.13;;
14554;SDS011;7364;50.870;4.722;2022-08-19T09:56:26;5.20;;;3.90;;
14554;SDS011;7364;50.870;4.722;2022-08-19T09:58:57;7.20;;;4.17;;
14554;SDS011;7364;50.870;4.722;2022-08-19T10:01:26;5.60;;;4.33;;
14554;SDS011;7364;50.870;4.722;2022-08-19T10:03:56;5.83;;;3.97;;
14554;SDS011;7364;50.870;4.722;2022-08-19T10:06:25;5.53;;;4.67;;
14554;SDS011;7364;50.870;4.722;2022-08-19T10:08:55;7.63;;;5.10;;
14554;SDS011;7364;50.870;4.722;2022-08-19T10:11:22;6.30;;;5.07;;
14554;SDS011;7364;50.870;4.722;2022-08-19T10:13:51;8.33;;;5.57;;
14554;SDS011;7364;50.870;4.722;2022-08-19T10:16:21;6.90;;;5.30;;
14554;SDS011;7364;50.870;4.722;2022-08-19T10:18:49;7.93;;;5.33;;
14554;SDS011;7364;50.870;4.722;2022-08-19T10:21:17;6.20;;;4.60;;
14554;SDS011;7364;50.870;4.722;2022-08-19T10:23:48;6.73;;;4.63;;
14554;SDS011;7364;50.870;4.722;2022-08-19T10:26:19;9.97;;;5.40;;
14554;SDS011;7364;50.870;4.722;2022-08-19T10:28:48;7.27;;;5.57;;
14554;SDS011;7364;50.870;4.722;2022-08-19T10:31:16;7.43;;;5.40;;
14554;SDS011;7364;50.870;4.722;2022-08-19T10:33:47;6.83;;;5.20;;
14554;SDS011;7364;50.870;4.722;2022-08-19T10:36:15;7.83;;;5.20;;
14554;SDS011;7364;50.870;4.722;2022-08-19T10:38:46;6.87;;;4.93;;
14554;SDS011;7364;50.870;4.722;2022-08-19T10:41:17;7.03;;;4.53;;
14554;SDS011;7364;50.870;4.722;2022-08-19T10:43:47;9.10;;;5.00;;
14554;SDS011;7364;50.870;4.722;2022-08-19T10:46:19;7.90;;;5.37;;
14554;SDS011;7364;50.870;4.722;2022-08-19T10:48:49;7.87;;;5.20;;
14554;SDS011;7364;50.870;4.722;2022-08-19T10:51:17;7.03;;;5.67;;
14554;SDS011;7364;50.870;4.722;2022-08-19T10:54:02;8.47;;;5.43;;
14554;SDS011;7364;50.870;4.722;2022-08-19T10:56:30;7.10;;;4.83;;
14554;SDS011;7364;50.870;4.722;2022-08-19T10:59:16;6.30;;;5.10;;
14554;SDS011;7364;50.870;4.722;2022-08-19T11:01:45;7.57;;;5.30;;
14554;SDS011;7364;50.870;4.722;2022-08-19T11:04:15;6.17;;;4.53;;
14554;SDS011;7364;50.870;4.722;2022-08-19T11:06:43;6.40;;;4.87;;
14554;SDS011;7364;50.870;4.722;2022-08-19T11:09:12;6.33;;;4.77;;
14554;SDS011;7364;50.870;4.722;2022-08-19T11:11:40;6.27;;;3.90;;
14554;SDS011;7364;50.870;4.722;2022-08-19T11:14:08;4.00;;;3.60;;
14554;SDS011;7364;50.870;4.722;2022-08-19T11:16:36;9.20;;;3.60;;
14554;SDS011;7364;50.870;4.722;2022-08-19T11:19:04;4.17;;;3.23;;
14554;SDS011;7364;50.870;4.722;2022-08-19T11:21:35;6.23;;;3.97;;
14554;SDS011;7364;50.870;4.722;2022-08-19T11:24:05;5.10;;;3.93;;
14554;SDS011;7364;50.870;4.722;2022-08-19T11:26:34;5.87;;;3.60;;
14554;SDS011;7364;50.870;4.722;2022-08-19T11:29:02;6.20;;;4.03;;
14554;SDS011;7364;50.870;4.722;2022-08-19T11:31:32;5.23;;;3.37;;
14554;SDS011;7364;50.870;4.722;2022-08-19T11:34:03;4.63;;;3.33;;
14554;SDS011;7364;50.870;4.722;2022-08-19T11:36:38;5.47;;;3.87;;
14554;SDS011;7364;50.870;4.722;2022-08-19T11:39:06;5.97;;;4.13;;
14554;SDS011;7364;50.870;4.722;2022-08-19T11:41:35;4.17;;;3.77;;
14554;SDS011;7364;50.870;4.722;2022-08-19T11:44:05;5.57;;;4.47;;
14554;SDS011;7364;50.870;4.722;2022-08-19T11:46:33;6.53;;;4.60;;
14554;SDS011;7364;50.870;4.722;2022-08-19T11:49:01;7.73;;;5.00;;
14554;SDS011;7364;50.870;4.722;2022-08-19T11:51:30;5.40;;;4.27;;
14554;SDS011;7364;50.870;4.722;2022-08-19T11:54:00;5.17;;;4.60;;
14554;SDS011;7364;50.870;4.722;2022-08-19T11:56:28;5.10;;;4.60;;
14554;SDS011;7364;50.870;4.722;2022-08-19T11:58:55;5.77;;;5.17;;
14554;SDS011;7364;50.870;4.722;2022-08-19T12:01:24;6.10;;;5.50;;
14554;SDS011;7364;50.870;4.722;2022-08-19T12:03:52;5.80;;;4.90;;
14554;SDS011;7364;50.870;4.722;2022-08-19T12:06:22;11.10;;;5.70;;
14554;SDS011;7364;50.870;4.722;2022-08-19T12:08:53;5.97;;;5.37;;
14554;SDS011;7364;50.870;4.722;2022-08-19T12:11:23;6.30;;;5.70;;
14554;SDS011;7364;50.870;4.722;2022-08-19T12:13:50;9.93;;;6.53;;
14554;SDS011;7364;50.870;4.722;2022-08-19T12:16:20;8.20;;;7.37;;
14554;SDS011;7364;50.870;4.722;2022-08-19T12:18:49;9.00;;;7.50;;
14554;SDS011;7364;50.870;4.722;2022-08-19T12:21:18;9.63;;;8.27;;
14554;SDS011;7364;50.870;4.722;2022-08-19T12:23:48;8.80;;;7.90;;
14554;SDS011;7364;50.870;4.722;2022-08-19T12:26:18;8.80;;;7.63;;
14554;SDS011;7364;50.870;4.722;2022-08-19T12:28:47;8.87;;;7.90;;
14554;SDS011;7364;50.870;4.722;2022-08-19T12:31:14;8.77;;;7.90;;
14554;SDS011;7364;50.870;4.722;2022-08-19T12:33:42;8.47;;;7.63;;
14554;SDS011;7364;50.870;4.722;2022-08-19T12:36:10;11.30;;;7.50;;
14554;SDS011;7364;50.870;4.722;2022-08-19T12:38:43;9.50;;;7.93;;
14554;SDS011;7364;50.870;4.722;2022-08-19T12:41:14;9.10;;;8.17;;
14554;SDS011;7364;50.870;4.722;2022-08-19T12:43:43;9.13;;;8.23;;
14554;SDS011;7364;50.870;4.722;2022-08-19T12:46:14;8.93;;;7.13;;
14554;SDS011;7364;50.870;4.722;2022-08-19T12:48:42;10.07;;;7.53;;
14554;SDS011;7364;50.870;4.722;2022-08-19T12:51:10;8.23;;;7.40;;
14554;SDS011;7364;50.870;4.722;2022-08-19T12:53:38;7.20;;;6.50;;
14554;SDS011;7364;50.870;4.722;2022-08-19T12:56:07;8.33;;;6.77;;
14554;SDS011;7364;50.870;4.722;2022-08-19T12:58:38;7.60;;;6.77;;
14554;SDS011;7364;50.870;4.722;2022-08-19T13:01:07;7.70;;;6.77;;
14554;SDS011;7364;50.870;4.722;2022-08-19T13:03:36;7.00;;;6.30;;
14554;SDS011;7364;50.870;4.722;2022-08-19T13:06:04;7.40;;;6.70;;
14554;SDS011;7364;50.870;4.722;2022-08-19T13:08:32;6.10;;;5.40;;
14554;SDS011;7364;50.870;4.722;2022-08-19T13:11:06;7.10;;;4.97;;
14554;SDS011;7364;50.870;4.722;2022-08-19T13:13:37;5.87;;;5.13;;
14554;SDS011;7364;50.870;4.722;2022-08-19T13:16:08;6.93;;;4.90;;
14554;SDS011;7364;50.870;4.722;2022-08-19T13:18:38;5.72;;;5.22;;
14554;SDS011;7364;50.870;4.722;2022-08-19T13:21:07;7.53;;;4.57;;
14554;SDS011;7364;50.870;4.722;2022-08-19T13:23:36;5.63;;;3.78;;
14554;SDS011;7364;50.870;4.722;2022-08-19T13:26:05;5.63;;;4.35;;
14554;SDS011;7364;50.870;4.722;2022-08-19T13:28:33;4.38;;;3.97;;
14554;SDS011;7364;50.870;4.722;2022-08-19T13:31:15;8.95;;;4.50;;
14554;SDS011;7364;50.870;4.722;2022-08-19T13:34:02;4.72;;;3.78;;
14554;SDS011;7364;50.870;4.722;2022-08-19T13:36:29;7.53;;;3.45;;
14554;SDS011;7364;50.870;4.722;2022-08-19T13:38:57;6.13;;;3.30;;
14554;SDS011;7364;50.870;4.722;2022-08-19T13:41:24;4.85;;;3.05;;
14554;SDS011;7364;50.870;4.722;2022-08-19T13:43:51;2.90;;;2.40;;
14554;SDS011;7364;50.870;4.722;2022-08-19T13:46:19;2.80;;;2.35;;
14554;SDS011;7364;50.870;4.722;2022-08-19T13:48:47;3.60;;;2.45;;
14554;SDS011;7364;50.870;4.722;2022-08-19T13:51:17;4.50;;;2.90;;
14554;SDS011;7364;50.870;4.722;2022-08-19T13:53:45;4.72;;;2.33;;
14554;SDS011;7364;50.870;4.722;2022-08-19T13:56:13;2.58;;;1.85;;
14554;SDS011;7364;50.870;4.722;2022-08-19T13:58:42;3.60;;;1.80;;
14554;SDS011;7364;50.870;4.722;2022-08-19T14:01:09;2.78;;;2.10;;
14554;SDS011;7364;50.870;4.722;2022-08-19T14:03:36;2.55;;;1.90;;
14554;SDS011;7364;50.870;4.722;2022-08-19T14:06:04;5.68;;;1.63;;
14554;SDS011;7364;50.870;4.722;2022-08-19T14:08:33;5.35;;;1.58;;
14554;SDS011;7364;50.870;4.722;2022-08-19T14:11:04;1.70;;;1.50;;
14554;SDS011;7364;50.870;4.722;2022-08-19T14:13:32;3.13;;;1.80;;
14554;SDS011;7364;50.870;4.722;2022-08-19T14:15:59;2.20;;;1.88;;
14554;SDS011;7364;50.870;4.722;2022-08-19T14:18:30;3.40;;;1.77;;
14554;SDS011;7364;50.870;4.722;2022-08-19T14:20:57;5.25;;;2.05;;
14554;SDS011;7364;50.870;4.722;2022-08-19T14:23:24;3.72;;;1.63;;
14554;SDS011;7364;50.870;4.722;2022-08-19T14:25:53;3.03;;;1.93;;
14554;SDS011;7364;50.870;4.722;2022-08-19T14:28:30;2.07;;;1.30;;
14554;SDS011;7364;50.870;4.722;2022-08-19T14:30:57;1.97;;;1.40;;
14554;SDS011;7364;50.870;4.722;2022-08-19T14:33:24;2.63;;;1.53;;
14554;SDS011;7364;50.870;4.722;2022-08-19T14:35:52;4.47;;;1.53;;
14554;SDS011;7364;50.870;4.722;2022-08-19T14:38:19;2.13;;;1.20;;
14554;SDS011;7364;50.870;4.722;2022-08-19T14:40:46;1.50;;;1.40;;
14554;SDS011;7364;50.870;4.722;2022-08-19T14:43:15;1.98;;;1.35;;
14554;SDS011;7364;50.870;4.722;2022-08-19T14:45:42;2.67;;;1.40;;
14554;SDS011;7364;50.870;4.722;2022-08-19T14:48:10;2.08;;;1.45;;
14554;SDS011;7364;50.870;4.722;2022-08-19T14:50:37;2.05;;;1.25;;
14554;SDS011;7364;50.870;4.722;2022-08-19T14:53:05;3.28;;;1.60;;
14554;SDS011;7364;50.870;4.722;2022-08-19T14:55:34;2.10;;;1.57;;
14554;SDS011;7364;50.870;4.722;2022-08-19T14:58:01;3.53;;;1.40;;
14554;SDS011;7364;50.870;4.722;2022-08-19T15:00:32;2.90;;;1.17;;